Time;durP1;ratioP1;P1;durP2;ratioP2;P2;SDS_P1;SDS_P2;PMS_P1;PMS_P2;Temp;Humidity;BMP_temperature;BMP_pressure;BME280_temperature;BME280_humidity;BME280_pressure;Samples;Min_cycle;Max_cycle;Signal;HPM_P1;HPM_P2
2021/03/17 00:00:49;;;;;;;4.40;3.60;;;3.50;99.90;;;;;;5095288;28;20180;-56
2021/03/17 00:03:15;;;;;;;6.23;4.00;;;3.50;99.90;;;;;;5095161;28;20187;-57
2021/03/17 00:05:41;;;;;;;6.10;3.80;;;3.50;99.90;;;;;;5095651;28;20314;-54
2021/03/17 00:08:07;;;;;;;6.30;4.00;;;3.60;99.90;;;;;;5095243;28;20173;-53
2021/03/17 00:10:36;;;;;;;4.43;3.70;;;3.60;99.90;;;;;;5095072;28;20200;-51
2021/03/17 00:13:01;;;;;;;5.60;4.20;;;3.60;99.90;;;;;;5094520;28;20510;-52
2021/03/17 00:15:30;;;;;;;5.13;4.10;;;3.60;99.90;;;;;;5077863;28;20743;-58
2021/03/17 00:17:56;;;;;;;5.90;4.07;;;3.60;99.90;;;;;;5074707;28;20181;-55
2021/03/17 00:20:27;;;;;;;4.20;3.67;;;3.60;99.90;;;;;;5074226;28;20195;-52
2021/03/17 00:22:54;;;;;;;6.00;4.13;;;3.50;99.90;;;;;;5075008;28;20158;-50
2021/03/17 00:25:21;;;;;;;7.13;4.30;;;3.50;99.90;;;;;;5074582;28;20289;-52
2021/03/17 00:27:47;;;;;;;8.43;4.40;;;3.60;99.90;;;;;;5074561;28;20569;-56
2021/03/17 00:30:13;;;;;;;6.20;5.00;;;3.60;99.90;;;;;;5074474;28;20663;-55
2021/03/17 00:32:39;;;;;;;6.93;5.03;;;3.60;99.90;;;;;;5074710;28;20213;-50
2021/03/17 00:35:05;;;;;;;5.20;4.70;;;3.50;99.90;;;;;;5074781;28;20198;-49
2021/03/17 00:37:31;;;;;;;7.37;5.37;;;3.40;99.90;;;;;;5074770;28;20182;-52
2021/03/17 00:39:56;;;;;;;5.00;4.47;;;3.30;99.90;;;;;;5074948;28;20210;-58
2021/03/17 00:42:22;;;;;;;6.97;5.00;;;3.30;99.90;;;;;;5074639;28;20526;-52
2021/03/17 00:44:47;;;;;;;6.50;4.67;;;3.30;99.90;;;;;;5074251;28;20641;-58
2021/03/17 00:47:13;;;;;;;7.37;5.70;;;3.20;99.90;;;;;;5074819;28;20646;-48
2021/03/17 00:49:38;;;;;;;7.23;5.57;;;3.20;99.90;;;;;;5073781;28;20178;-48
2021/03/17 00:52:04;;;;;;;6.80;5.30;;;3.20;99.90;;;;;;5074276;28;20174;-53
2021/03/17 00:54:30;;;;;;;5.90;4.93;;;3.20;99.90;;;;;;5075096;28;20194;-54
2021/03/17 00:56:55;;;;;;;7.47;5.27;;;3.10;99.90;;;;;;5074433;28;20672;-53
2021/03/17 00:59:21;;;;;;;6.70;5.40;;;3.00;99.90;;;;;;5074437;28;20336;-53
2021/03/17 01:01:46;;;;;;;8.53;5.63;;;3.00;99.90;;;;;;5074527;28;20175;-53
2021/03/17 01:04:12;;;;;;;6.67;5.43;;;2.90;99.90;;;;;;5074507;28;20177;-52
2021/03/17 01:06:38;;;;;;;9.50;6.30;;;2.90;99.90;;;;;;5074515;28;20277;-56
2021/03/17 01:09:04;;;;;;;6.53;5.47;;;3.00;99.90;;;;;;5074059;28;20534;-56
2021/03/17 01:11:31;;;;;;;8.37;6.10;;;3.10;99.90;;;;;;5073750;28;20293;-48
2021/03/17 01:13:56;;;;;;;7.13;6.10;;;3.10;99.90;;;;;;5073883;28;20254;-55
2021/03/17 01:16:22;;;;;;;7.53;6.70;;;3.10;99.90;;;;;;5073746;28;20197;-50
2021/03/17 01:18:47;;;;;;;7.53;6.40;;;3.10;99.90;;;;;;5073054;28;20256;-48
2021/03/17 01:21:13;;;;;;;7.80;6.03;;;3.20;99.90;;;;;;5074072;28;20171;-48
2021/03/17 01:23:39;;;;;;;9.33;6.53;;;3.20;99.90;;;;;;5090220;28;20288;-47
2021/03/17 01:26:04;;;;;;;6.70;6.00;;;3.20;99.90;;;;;;5093786;28;20186;-48
2021/03/17 01:28:30;;;;;;;7.60;6.73;;;3.20;99.90;;;;;;5094483;28;20177;-49
2021/03/17 01:30:58;;;;;;;6.90;6.20;;;3.30;99.90;;;;;;5094089;28;20218;-52
2021/03/17 01:33:26;;;;;;;8.00;6.60;;;3.20;99.90;;;;;;5094465;28;20182;-52
2021/03/17 01:35:52;;;;;;;7.07;6.37;;;3.30;99.90;;;;;;5094400;28;20657;-57
2021/03/17 01:38:18;;;;;;;8.63;7.03;;;3.40;99.90;;;;;;5094051;28;20174;-55
2021/03/17 01:40:44;;;;;;;7.47;6.63;;;3.40;99.90;;;;;;5094392;28;20174;-48
2021/03/17 01:43:10;;;;;;;8.77;6.93;;;3.40;99.90;;;;;;5093546;28;20205;-49
2021/03/17 01:45:37;;;;;;;8.93;7.60;;;3.40;99.90;;;;;;5093599;28;20289;-49
2021/03/17 01:48:03;;;;;;;8.97;7.30;;;3.40;99.90;;;;;;5093765;28;20209;-53
2021/03/17 01:50:42;;;;;;;8.30;7.43;;;3.40;99.90;;;;;;5093661;28;20535;-57
2021/03/17 01:53:10;;;;;;;10.97;8.00;;;3.40;99.90;;;;;;5093694;28;20192;-51
2021/03/17 01:55:37;;;;;;;9.50;7.93;;;3.30;99.90;;;;;;5093923;28;20250;-48
2021/03/17 01:58:03;;;;;;;10.37;7.70;;;3.40;99.90;;;;;;5084840;28;20212;-55
2021/03/17 02:00:30;;;;;;;11.17;8.90;;;3.40;99.90;;;;;;5074005;28;20600;-48
2021/03/17 02:02:56;;;;;;;9.93;8.00;;;3.40;99.90;;;;;;5076550;28;20212;-52
2021/03/17 02:05:33;;;;;;;9.30;7.90;;;3.40;99.90;;;;;;5077521;28;20577;-57
2021/03/17 02:08:03;;;;;;;9.43;8.07;;;3.50;99.90;;;;;;5077346;28;20170;-53
2021/03/17 02:10:29;;;;;;;9.10;7.67;;;3.50;99.90;;;;;;5077226;28;20205;-59
2021/03/17 02:13:16;;;;;;;10.77;8.67;;;3.50;99.90;;;;;;5076350;28;20523;-50
2021/03/17 02:16:08;;;;;;;10.53;9.10;;;3.50;99.90;;;;;;5077275;28;20609;-48
2021/03/17 02:18:52;;;;;;;8.87;7.93;;;3.60;99.90;;;;;;5077068;28;20190;-55
2021/03/17 02:21:48;;;;;;;9.83;8.03;;;3.60;99.90;;;;;;5077543;28;20174;-49
2021/03/17 02:24:38;;;;;;;9.73;8.70;;;3.70;99.90;;;;;;5076705;28;20495;-53
2021/03/17 02:27:22;;;;;;;9.50;8.10;;;3.70;99.90;;;;;;5077094;28;20296;-52
2021/03/17 02:30:18;;;;;;;9.77;8.47;;;3.80;99.90;;;;;;5091314;28;20198;-52
2021/03/17 02:33:21;;;;;;;9.90;8.80;;;3.80;99.90;;;;;;5095801;28;20533;-49
2021/03/17 02:35:59;;;;;;;9.73;8.17;;;3.70;99.90;;;;;;5097245;28;20197;-56
2021/03/17 02:38:25;;;;;;;11.90;9.27;;;3.70;99.90;;;;;;5096674;28;20261;-54
2021/03/17 02:40:56;;;;;;;9.60;8.57;;;3.70;99.90;;;;;;5097525;28;20170;-56
2021/03/17 02:43:27;;;;;;;9.30;8.40;;;3.80;99.90;;;;;;5097335;28;20169;-52
2021/03/17 02:45:56;;;;;;;10.57;8.57;;;3.80;99.90;;;;;;5096507;28;20193;-48
2021/03/17 02:48:43;;;;;;;10.13;8.50;;;3.80;99.90;;;;;;5097203;28;20170;-55
2021/03/17 02:51:15;;;;;;;9.27;8.33;;;3.90;99.90;;;;;;5096491;28;20165;-49
2021/03/17 02:53:43;;;;;;;10.30;9.13;;;3.90;99.90;;;;;;5096749;28;20194;-52
2021/03/17 02:56:14;;;;;;;12.33;9.60;;;3.90;99.90;;;;;;5096286;28;20273;-58
2021/03/17 02:58:44;;;;;;;10.00;8.87;;;3.80;99.90;;;;;;5096644;28;20221;-52
2021/03/17 03:01:13;;;;;;;10.57;9.27;;;3.80;99.90;;;;;;5096348;28;20166;-58
2021/03/17 03:03:40;;;;;;;10.60;9.00;;;3.80;99.90;;;;;;5096637;28;20180;-54
2021/03/17 03:06:07;;;;;;;10.67;9.57;;;3.70;99.90;;;;;;5096345;28;20236;-47
2021/03/17 03:08:36;;;;;;;10.77;9.33;;;3.70;99.90;;;;;;5096874;28;20223;-53
2021/03/17 03:11:03;;;;;;;11.90;9.00;;;3.90;99.90;;;;;;5095861;28;20196;-49
2021/03/17 03:13:29;;;;;;;12.63;9.70;;;4.00;99.90;;;;;;5096480;28;20172;-52
2021/03/17 03:15:56;;;;;;;10.37;8.77;;;4.00;99.90;;;;;;5096766;28;20318;-58
2021/03/17 03:18:24;;;;;;;11.37;9.20;;;4.10;99.90;;;;;;5096282;28;20162;-49
2021/03/17 03:20:51;;;;;;;10.10;8.73;;;4.30;99.90;;;;;;5096306;28;20202;-54
2021/03/17 03:23:18;;;;;;;9.90;8.63;;;4.40;99.90;;;;;;5096186;28;20159;-52
2021/03/17 03:25:46;;;;;;;11.13;8.53;;;4.50;99.90;;;;;;5096584;28;20190;-48
2021/03/17 03:28:14;;;;;;;10.77;9.27;;;4.60;99.90;;;;;;5095901;28;20252;-49
2021/03/17 03:30:46;;;;;;;9.67;8.63;;;4.50;99.90;;;;;;5095599;28;20177;-51
2021/03/17 03:33:12;;;;;;;10.43;8.77;;;4.50;99.90;;;;;;5096270;28;20265;-54
2021/03/17 03:35:38;;;;;;;10.20;9.00;;;4.40;99.90;;;;;;5096068;28;20692;-48
2021/03/17 03:38:05;;;;;;;10.90;9.13;;;4.40;99.90;;;;;;5096188;28;20174;-56
2021/03/17 03:40:31;;;;;;;11.10;8.47;;;4.40;99.90;;;;;;5077256;28;20212;-55
2021/03/17 03:42:57;;;;;;;9.33;8.40;;;4.40;99.90;;;;;;5075951;28;20166;-52
2021/03/17 03:45:23;;;;;;;10.37;8.37;;;4.40;99.90;;;;;;5075298;28;20244;-56
2021/03/17 03:47:48;;;;;;;10.40;8.53;;;4.30;99.90;;;;;;5075967;28;20170;-57
2021/03/17 03:50:18;;;;;;;10.07;8.97;;;4.30;99.90;;;;;;5075639;28;20219;-52
2021/03/17 03:53:11;;;;;;;9.90;8.70;;;4.30;99.90;;;;;;5075843;28;20200;-53
2021/03/17 03:55:48;;;;;;;11.70;9.07;;;4.40;99.90;;;;;;5076233;28;20202;-51
2021/03/17 03:58:22;;;;;;;12.63;9.23;;;4.40;99.90;;;;;;5095466;28;20173;-49
2021/03/17 04:00:48;;;;;;;11.73;9.03;;;4.40;99.90;;;;;;5095059;28;20154;-48
2021/03/17 04:03:14;;;;;;;11.63;9.47;;;4.20;99.90;;;;;;5096101;28;20158;-54
2021/03/17 04:05:43;;;;;;;11.17;9.97;;;4.20;99.90;;;;;;5095257;28;20182;-53
2021/03/17 04:08:15;;;;;;;10.20;8.83;;;4.10;99.90;;;;;;5095470;28;20295;-52
2021/03/17 04:10:41;;;;;;;11.77;10.03;;;4.20;99.90;;;;;;5095367;28;20192;-50
2021/03/17 04:13:08;;;;;;;10.73;9.57;;;4.20;99.90;;;;;;5094767;28;20177;-48
2021/03/17 04:15:37;;;;;;;11.67;9.43;;;4.20;99.90;;;;;;5095180;28;20205;-55
2021/03/17 04:18:09;;;;;;;10.20;9.10;;;4.20;99.90;;;;;;5095575;28;20170;-48
2021/03/17 04:20:40;;;;;;;11.33;9.33;;;4.10;99.90;;;;;;5095494;28;20560;-54
2021/03/17 04:23:07;;;;;;;11.37;9.57;;;4.00;99.90;;;;;;5095437;28;20165;-56
2021/03/17 04:25:36;;;;;;;13.27;10.13;;;3.90;99.90;;;;;;5094570;28;20196;-49
2021/03/17 04:28:04;;;;;;;12.63;9.30;;;3.80;99.90;;;;;;5093412;28;20237;-48
2021/03/17 04:30:30;;;;;;;11.57;10.23;;;3.70;99.90;;;;;;5094926;28;20208;-49
2021/03/17 04:32:57;;;;;;;12.93;10.33;;;3.60;99.90;;;;;;5094674;28;20177;-56
2021/03/17 04:35:23;;;;;;;12.53;10.50;;;3.60;99.90;;;;;;5095121;28;20564;-54
2021/03/17 04:37:51;;;;;;;13.87;10.70;;;3.60;99.90;;;;;;5095455;28;20743;-57
2021/03/17 04:40:18;;;;;;;11.07;9.23;;;3.60;99.90;;;;;;5095220;28;20349;-51
2021/03/17 04:42:45;;;;;;;12.17;10.40;;;3.70;99.90;;;;;;5094249;28;20174;-53
2021/03/17 04:45:12;;;;;;;15.03;10.07;;;3.80;99.90;;;;;;5094429;28;20200;-49
2021/03/17 04:47:40;;;;;;;12.93;9.90;;;3.90;99.90;;;;;;5094794;28;20173;-47
2021/03/17 04:50:08;;;;;;;11.80;9.50;;;3.90;99.90;;;;;;5094738;28;20502;-52
2021/03/17 04:52:38;;;;;;;12.40;10.10;;;4.10;99.90;;;;;;5095176;28;20177;-56
2021/03/17 04:55:04;;;;;;;11.57;9.83;;;4.00;99.90;;;;;;5094822;28;20199;-51
2021/03/17 04:57:33;;;;;;;13.63;10.50;;;4.00;99.90;;;;;;5094002;28;20184;-54
2021/03/17 05:00:00;;;;;;;12.00;9.77;;;3.90;99.90;;;;;;5093874;28;20281;-53
2021/03/17 05:02:29;;;;;;;13.07;9.73;;;3.90;99.90;;;;;;5094315;28;20161;-48
2021/03/17 05:04:55;;;;;;;10.70;9.07;;;3.90;99.90;;;;;;5094525;28;20189;-58
2021/03/17 05:07:21;;;;;;;11.47;9.43;;;3.80;99.90;;;;;;5094423;28;20181;-56
2021/03/17 05:09:48;;;;;;;12.30;10.43;;;3.80;99.90;;;;;;5094205;28;20645;-49
2021/03/17 05:12:15;;;;;;;13.53;9.90;;;3.70;99.90;;;;;;5093818;28;20170;-48
2021/03/17 05:14:43;;;;;;;11.80;9.40;;;3.60;99.90;;;;;;5094392;28;20178;-50
2021/03/17 05:17:09;;;;;;;12.20;9.93;;;3.50;99.90;;;;;;5094325;28;20181;-48
2021/03/17 05:19:36;;;;;;;11.47;9.93;;;3.50;99.90;;;;;;5094315;28;20197;-47
2021/03/17 05:22:04;;;;;;;12.30;10.13;;;3.40;99.90;;;;;;5094130;28;20497;-48
2021/03/17 05:24:30;;;;;;;12.00;10.27;;;3.40;99.90;;;;;;5094600;28;20176;-57
2021/03/17 05:26:59;;;;;;;12.70;10.60;;;3.40;99.90;;;;;;5094202;28;20224;-57
2021/03/17 05:29:26;;;;;;;13.13;10.20;;;3.40;99.90;;;;;;5094179;28;20633;-49
2021/03/17 05:31:53;;;;;;;11.97;10.37;;;3.20;99.90;;;;;;5085787;28;20240;-53
2021/03/17 05:34:20;;;;;;;16.50;10.73;;;3.20;99.90;;;;;;5078790;28;20654;-55
2021/03/17 05:36:46;;;;;;;12.67;11.03;;;3.20;99.90;;;;;;5075048;28;20209;-53
2021/03/17 05:39:12;;;;;;;11.30;9.87;;;3.30;99.90;;;;;;5088647;28;20564;-50
2021/03/17 05:41:39;;;;;;;13.13;11.03;;;4.10;99.90;;;;;;5085415;28;20215;-48
2021/03/17 05:44:06;;;;;;;11.67;9.63;;;3.50;99.90;;;;;;5087681;28;20538;-56
2021/03/17 05:46:33;;;;;;;12.57;10.53;;;3.60;99.90;;;;;;5085849;28;20241;-56
2021/03/17 05:48:59;;;;;;;12.70;10.20;;;3.60;99.90;;;;;;5087558;28;20649;-51
2021/03/17 05:51:24;;;;;;;13.03;10.50;;;3.60;99.90;;;;;;5087235;28;20527;-47
2021/03/17 05:53:50;;;;;;;12.20;10.30;;;3.80;99.90;;;;;;5076675;28;20638;-49
2021/03/17 05:56:16;;;;;;;14.03;10.33;;;3.90;99.90;;;;;;5075326;28;20198;-51
2021/03/17 05:58:43;;;;;;;12.90;10.57;;;4.00;99.90;;;;;;5077111;28;20261;-55
2021/03/17 06:01:14;;;;;;;13.37;10.77;;;4.00;99.90;;;;;;5076835;28;20217;-52
2021/03/17 06:03:40;;;;;;;12.47;10.23;;;4.00;99.90;;;;;;5077669;28;20183;-48
2021/03/17 06:06:06;;;;;;;11.47;9.87;;;3.90;99.90;;;;;;5077056;28;20190;-52
2021/03/17 06:08:39;;;;;;;12.63;10.63;;;4.00;99.90;;;;;;5077249;28;20162;-54
2021/03/17 06:11:08;;;;;;;11.80;10.03;;;4.00;99.90;;;;;;5077142;28;20190;-48
2021/03/17 06:13:34;;;;;;;12.63;9.80;;;4.10;99.90;;;;;;5077072;28;20162;-53
2021/03/17 06:16:03;;;;;;;12.90;10.30;;;4.10;99.90;;;;;;5076683;28;20542;-54
2021/03/17 06:18:43;;;;;;;10.83;9.60;;;4.30;99.90;;;;;;5076421;28;20185;-51
2021/03/17 06:21:09;;;;;;;11.60;10.07;;;4.40;99.90;;;;;;5077165;28;20241;-51
2021/03/17 06:23:35;;;;;;;13.03;10.10;;;4.50;99.90;;;;;;5076842;28;20503;-58
2021/03/17 06:26:01;;;;;;;11.90;9.83;;;4.50;99.90;;;;;;5076567;28;20194;-53
2021/03/17 06:28:27;;;;;;;11.57;10.17;;;4.50;99.90;;;;;;5077470;28;20170;-52
2021/03/17 06:30:57;;;;;;;13.00;10.03;;;4.50;99.90;;;;;;5076471;28;20174;-49
2021/03/17 06:33:23;;;;;;;12.93;10.33;;;4.40;99.90;;;;;;5077461;28;20194;-57
2021/03/17 06:36:13;;;;;;;11.63;9.97;;;4.50;99.90;;;;;;5085903;28;20186;-52
2021/03/17 06:38:39;;;;;;;11.67;9.63;;;4.60;99.90;;;;;;5086601;28;20576;-56
2021/03/17 06:41:05;;;;;;;14.53;10.77;;;4.50;99.90;;;;;;5083488;28;20178;-57
2021/03/17 06:43:46;;;;;;;13.77;10.03;;;4.20;99.90;;;;;;5095890;28;20274;-48
2021/03/17 06:46:14;;;;;;;12.33;10.83;;;4.10;99.90;;;;;;5084856;28;20210;-51
2021/03/17 06:48:40;;;;;;;12.97;10.83;;;3.90;99.90;;;;;;5082891;28;20596;-58
2021/03/17 06:51:13;;;;;;;11.87;10.00;;;3.90;99.90;;;;;;5094415;28;20197;-48
2021/03/17 06:53:53;;;;;;;14.20;11.43;;;3.90;99.90;;;;;;5094018;28;20174;-52
2021/03/17 06:56:21;;;;;;;11.43;9.97;;;4.00;99.90;;;;;;5088268;28;20213;-52
2021/03/17 06:58:51;;;;;;;12.97;10.50;;;3.90;99.90;;;;;;5082498;28;20216;-49
2021/03/17 07:01:23;;;;;;;12.27;10.30;;;3.90;99.90;;;;;;5087837;28;20174;-53
2021/03/17 07:04:18;;;;;;;12.03;10.73;;;3.90;99.90;;;;;;5094586;28;20752;-52
2021/03/17 07:07:00;;;;;;;12.97;10.73;;;4.00;99.90;;;;;;5089675;28;20627;-51
2021/03/17 07:09:28;;;;;;;12.27;10.23;;;4.00;99.90;;;;;;5089328;28;20198;-50
2021/03/17 07:12:08;;;;;;;13.00;11.10;;;4.00;99.90;;;;;;5090049;28;20173;-49
2021/03/17 07:14:44;;;;;;;13.23;11.00;;;4.10;99.90;;;;;;5089636;28;20254;-54
2021/03/17 07:17:23;;;;;;;12.63;10.30;;;4.10;99.90;;;;;;5076282;28;20193;-48
2021/03/17 07:19:49;;;;;;;13.23;10.80;;;4.10;99.90;;;;;;5077263;28;20264;-56
2021/03/17 07:22:15;;;;;;;12.63;10.60;;;4.10;99.90;;;;;;5087990;28;20575;-54
2021/03/17 07:24:46;;;;;;;13.37;10.20;;;4.30;99.90;;;;;;5078271;28;20177;-58
2021/03/17 07:27:19;;;;;;;13.40;11.03;;;4.20;99.90;;;;;;5074968;28;20170;-49
2021/03/17 07:30:00;;;;;;;12.47;10.67;;;4.20;99.90;;;;;;5092873;28;20189;-58
2021/03/17 07:32:26;;;;;;;14.40;10.70;;;4.20;99.90;;;;;;5094240;28;20673;-52
2021/03/17 07:34:52;;;;;;;11.83;10.33;;;4.10;99.90;;;;;;5095485;28;20181;-48
2021/03/17 07:37:23;;;;;;;12.87;11.10;;;4.10;99.90;;;;;;5095420;28;20176;-49
2021/03/17 07:39:49;;;;;;;14.40;10.10;;;4.10;99.90;;;;;;5094806;28;20255;-50
2021/03/17 07:42:15;;;;;;;12.70;10.33;;;4.00;99.90;;;;;;5095307;28;20174;-51
2021/03/17 07:44:42;;;;;;;11.97;10.00;;;4.10;99.90;;;;;;5090936;28;20205;-59
2021/03/17 07:47:12;;;;;;;12.40;9.40;;;4.10;99.90;;;;;;5094679;28;20169;-57
2021/03/17 07:49:45;;;;;;;11.17;9.70;;;4.10;99.90;;;;;;5094409;28;20231;-55
2021/03/17 07:52:31;;;;;;;10.93;9.67;;;4.10;99.90;;;;;;5094342;28;20201;-49
2021/03/17 07:55:05;;;;;;;11.03;9.50;;;4.30;99.90;;;;;;5095433;28;20189;-51
2021/03/17 07:57:32;;;;;;;13.07;9.70;;;4.50;99.90;;;;;;5095212;28;20253;-49
2021/03/17 07:59:58;;;;;;;12.20;9.67;;;4.60;99.90;;;;;;5094232;28;20197;-53
2021/03/17 08:02:25;;;;;;;12.10;9.27;;;4.60;99.90;;;;;;5094966;28;20212;-57
2021/03/17 08:04:51;;;;;;;11.30;9.33;;;4.50;99.90;;;;;;5094599;28;20211;-52
2021/03/17 08:07:18;;;;;;;11.33;9.03;;;4.60;99.90;;;;;;5095036;28;20174;-52
2021/03/17 08:09:44;;;;;;;11.93;8.83;;;4.60;99.90;;;;;;5094910;28;20185;-49
2021/03/17 08:12:11;;;;;;;10.63;9.00;;;4.70;99.90;;;;;;5088169;28;20186;-49
2021/03/17 08:14:41;;;;;;;9.93;8.83;;;4.80;99.90;;;;;;5074835;28;20175;-55
2021/03/17 08:17:13;;;;;;;13.20;9.60;;;4.80;99.90;;;;;;5074873;28;20175;-52
2021/03/17 08:19:39;;;;;;;12.60;9.23;;;4.80;99.90;;;;;;5074715;28;20267;-54
2021/03/17 08:22:07;;;;;;;12.37;9.83;;;4.80;99.90;;;;;;5074271;28;20261;-54
2021/03/17 08:24:35;;;;;;;11.30;9.43;;;4.90;99.90;;;;;;5074367;28;20175;-54
2021/03/17 08:27:15;;;;;;;10.67;9.20;;;5.30;99.90;;;;;;5074626;28;20257;-53
2021/03/17 08:29:43;;;;;;;10.90;8.53;;;5.30;99.90;;;;;;5074561;28;20261;-51
2021/03/17 08:32:11;;;;;;;10.83;8.60;;;5.40;99.90;;;;;;5074273;28;20170;-57
2021/03/17 08:34:38;;;;;;;10.67;8.20;;;5.40;99.90;;;;;;5074425;28;20173;-56
2021/03/17 08:37:08;;;;;;;10.50;9.03;;;5.20;99.90;;;;;;5089612;28;20202;-54
2021/03/17 08:39:37;;;;;;;10.60;8.57;;;4.90;99.90;;;;;;5093732;28;20197;-48
2021/03/17 08:42:04;;;;;;;10.23;8.53;;;5.00;99.90;;;;;;5093730;28;20257;-49
2021/03/17 08:44:32;;;;;;;9.20;8.20;;;6.50;99.90;;;;;;5094775;28;20214;-48
2021/03/17 08:47:16;;;;;;;10.13;8.10;;;5.80;99.90;;;;;;5093963;28;20596;-50
2021/03/17 08:49:43;;;;;;;10.10;8.27;;;5.90;99.90;;;;;;5094447;28;20162;-50
2021/03/17 08:52:15;;;;;;;11.03;7.97;;;5.70;99.90;;;;;;5094350;28;20269;-54
2021/03/17 08:54:45;;;;;;;8.80;7.90;;;5.50;99.90;;;;;;5094082;28;20166;-50
2021/03/17 08:57:13;;;;;;;8.33;7.47;;;5.50;99.90;;;;;;5094318;28;20174;-55
2021/03/17 08:59:48;;;;;;;10.63;7.47;;;5.50;99.90;;;;;;5093956;28;20201;-48
2021/03/17 09:02:25;;;;;;;7.53;6.70;;;5.40;99.90;;;;;;5093691;28;20261;-48
2021/03/17 09:04:53;;;;;;;8.67;7.10;;;5.40;99.90;;;;;;5093957;28;20172;-54
2021/03/17 09:07:21;;;;;;;9.47;7.17;;;5.60;99.90;;;;;;5094207;28;20169;-53
2021/03/17 09:09:58;;;;;;;9.30;7.27;;;5.70;99.90;;;;;;5093645;28;20181;-57
2021/03/17 09:12:26;;;;;;;9.13;7.17;;;5.60;99.90;;;;;;5093922;28;20268;-57
2021/03/17 09:15:14;;;;;;;9.37;6.80;;;5.50;99.90;;;;;;5093807;28;20208;-54
2021/03/17 09:17:47;;;;;;;7.53;6.40;;;5.30;99.90;;;;;;5093726;28;20212;-48
2021/03/17 09:20:38;;;;;;;7.90;7.03;;;5.30;99.90;;;;;;5093855;28;20270;-49
2021/03/17 09:23:10;;;;;;;6.70;6.00;;;5.30;99.90;;;;;;5093641;28;20165;-47
2021/03/17 09:25:53;;;;;;;8.43;6.50;;;5.30;99.90;;;;;;5093880;28;20181;-53
2021/03/17 09:28:29;;;;;;;8.03;6.00;;;5.40;99.90;;;;;;5096257;28;20656;-58
2021/03/17 09:30:58;;;;;;;10.63;6.30;;;5.30;99.90;;;;;;5088704;28;20178;-49
2021/03/17 09:33:27;;;;;;;7.30;5.47;;;5.30;99.90;;;;;;5088103;28;20380;-48
2021/03/17 09:36:20;;;;;;;6.67;5.43;;;5.30;99.90;;;;;;5088760;28;20273;-51
2021/03/17 09:38:48;;;;;;;7.27;4.93;;;5.30;99.90;;;;;;5082027;28;20190;-51
2021/03/17 09:41:15;;;;;;;7.93;5.30;;;5.50;99.90;;;;;;5089321;28;20226;-49
2021/03/17 09:43:46;;;;;;;7.43;5.23;;;5.70;99.90;;;;;;5086951;28;20217;-58
2021/03/17 09:46:37;;;;;;;7.17;4.73;;;5.70;99.90;;;;;;5086664;28;20220;-51
2021/03/17 09:49:17;;;;;;;7.80;4.80;;;5.80;99.90;;;;;;5084381;28;20177;-48
2021/03/17 09:51:50;;;;;;;5.40;4.77;;;5.80;99.90;;;;;;5083811;28;20182;-53
2021/03/17 09:54:18;;;;;;;7.10;5.07;;;5.80;99.90;;;;;;5089903;28;20245;-51
2021/03/17 09:56:52;;;;;;;6.37;4.43;;;5.80;99.90;;;;;;5095441;27;20220;-49
2021/03/17 09:59:28;;;;;;;7.60;4.80;;;6.00;99.90;;;;;;5079922;28;20193;-52
2021/03/17 10:02:26;;;;;;;5.33;4.00;;;6.10;99.90;;;;;;5103468;28;20174;-47
2021/03/17 10:04:53;;;;;;;5.27;3.07;;;6.30;99.90;;;;;;5094305;28;20173;-49
2021/03/17 10:07:19;;;;;;;4.60;3.27;;;6.40;99.90;;;;;;5093555;28;20538;-51
2021/03/17 10:09:45;;;;;;;3.90;3.10;;;6.50;99.90;;;;;;5092579;28;20189;-49
2021/03/17 10:12:16;;;;;;;4.07;2.77;;;6.30;99.90;;;;;;5100177;28;20181;-54
2021/03/17 10:14:56;;;;;;;2.53;2.33;;;6.20;99.90;;;;;;5101892;28;20188;-48
2021/03/17 10:17:25;;;;;;;3.97;2.20;;;6.40;99.90;;;;;;5108342;28;20219;-48
2021/03/17 10:19:59;;;;;;;3.30;2.40;;;6.50;99.90;;;;;;5088196;28;20203;-51
2021/03/17 10:22:29;;;;;;;3.83;2.50;;;6.70;99.90;;;;;;5106740;28;20193;-54
2021/03/17 10:24:58;;;;;;;2.57;2.30;;;7.00;99.90;;;;;;5099635;28;20198;-53
2021/03/17 10:27:33;;;;;;;3.40;2.37;;;7.20;99.90;;;;;;5112078;27;20226;-55
2021/03/17 10:30:01;;;;;;;3.97;2.20;;;7.40;99.90;;;;;;5087196;28;20275;-53
2021/03/17 10:32:27;;;;;;;3.97;2.40;;;7.60;99.90;;;;;;5110588;28;20161;-53
2021/03/17 10:34:53;;;;;;;3.80;2.40;;;7.80;99.90;;;;;;5078293;28;20245;-55
2021/03/17 10:37:21;;;;;;;5.13;2.80;;;8.00;99.90;;;;;;5076322;28;20638;-51
2021/03/17 10:39:49;;;;;;;3.27;2.20;;;8.10;99.90;;;;;;5076473;28;20205;-57
2021/03/17 10:42:22;;;;;;;3.80;2.87;;;8.20;99.90;;;;;;5076111;28;20251;-57
2021/03/17 10:45:31;;;;;;;2.73;2.20;;;8.20;99.90;;;;;;5076148;28;20170;-48
2021/03/17 10:47:57;;;;;;;2.87;2.20;;;8.00;99.70;;;;;;4995051;28;20260;-51
2021/03/17 10:50:36;;;;;;;3.00;1.97;;;7.70;99.70;;;;;;4994690;28;20256;-54
2021/03/17 10:53:18;;;;;;;2.30;2.00;;;7.30;99.70;;;;;;5042254;28;20186;-49
2021/03/17 10:55:44;;;;;;;2.97;2.40;;;7.30;99.20;;;;;;5076071;28;20194;-48
2021/03/17 10:58:14;;;;;;;3.73;2.00;;;7.30;99.90;;;;;;5075786;28;20210;-51
2021/03/17 11:00:42;;;;;;;3.80;2.07;;;7.60;99.90;;;;;;5075788;28;20712;-55
2021/03/17 11:03:28;;;;;;;3.70;1.80;;;7.80;99.90;;;;;;5084737;28;20177;-48
2021/03/17 11:06:22;;;;;;;1.30;0.97;;;8.00;99.70;;;;;;5095821;28;20637;-48
2021/03/17 11:09:07;;;;;;;3.23;1.43;;;7.90;97.60;;;;;;5094352;28;20174;-50
2021/03/17 11:11:34;;;;;;;1.73;1.00;;;7.50;97.80;;;;;;5084592;28;20190;-53
2021/03/17 11:14:00;;;;;;;1.23;1.13;;;7.10;97.50;;;;;;5083856;28;20179;-53
2021/03/17 11:16:30;;;;;;;2.30;1.20;;;7.00;98.80;;;;;;5082948;28;20281;-50
2021/03/17 11:18:58;;;;;;;2.23;1.10;;;6.60;99.90;;;;;;5086270;28;20233;-51
2021/03/17 11:21:36;;;;;;;2.10;1.60;;;6.50;99.90;;;;;;5083625;28;20169;-55
2021/03/17 11:24:04;;;;;;;3.07;1.43;;;6.70;99.90;;;;;;5087134;28;20197;-54
2021/03/17 11:26:36;;;;;;;1.73;1.40;;;6.60;99.90;;;;;;5086189;28;20201;-56
2021/03/17 11:29:12;;;;;;;4.17;1.60;;;6.30;99.90;;;;;;5084965;28;20232;-48
2021/03/17 11:31:37;;;;;;;4.33;1.83;;;6.00;99.90;;;;;;5080037;28;20185;-54
2021/03/17 11:34:06;;;;;;;2.27;1.50;;;5.80;99.90;;;;;;5082424;28;20174;-54
2021/03/17 11:36:32;;;;;;;2.37;1.63;;;5.90;99.90;;;;;;5089158;28;20665;-48
2021/03/17 11:38:58;;;;;;;2.37;1.70;;;5.80;99.90;;;;;;5086729;28;20200;-53
2021/03/17 11:41:26;;;;;;;4.00;1.67;;;6.00;99.90;;;;;;5086850;28;20196;-47
2021/03/17 11:43:52;;;;;;;2.53;1.60;;;6.10;99.90;;;;;;5084967;28;20174;-48
2021/03/17 11:46:18;;;;;;;2.37;1.53;;;6.20;99.90;;;;;;5085838;28;21148;-52
2021/03/17 11:48:44;;;;;;;2.27;1.70;;;6.20;99.90;;;;;;5084928;28;20182;-49
2021/03/17 11:51:10;;;;;;;3.30;1.50;;;5.90;99.90;;;;;;5085089;28;20199;-49
2021/03/17 11:53:36;;;;;;;2.37;1.70;;;5.80;99.90;;;;;;5087247;28;20167;-48
2021/03/17 11:56:04;;;;;;;3.43;1.57;;;5.70;99.90;;;;;;5086520;28;20657;-50
2021/03/17 11:58:29;;;;;;;3.00;1.77;;;5.70;99.90;;;;;;5088380;28;20531;-50
2021/03/17 12:00:55;;;;;;;3.20;1.40;;;5.80;99.90;;;;;;5089751;28;20742;-47
2021/03/17 12:03:20;;;;;;;1.70;1.60;;;6.00;99.90;;;;;;5097403;28;20189;-54
2021/03/17 12:05:46;;;;;;;2.40;1.70;;;6.20;99.90;;;;;;5080702;28;20230;-50
2021/03/17 12:08:13;;;;;;;4.80;1.63;;;6.30;99.90;;;;;;5069989;28;20186;-48
2021/03/17 12:10:40;;;;;;;3.30;1.60;;;6.30;99.90;;;;;;5079595;28;20193;-49
2021/03/17 12:13:06;;;;;;;2.17;1.50;;;6.30;99.90;;;;;;5092073;28;20182;-50
2021/03/17 12:15:32;;;;;;;4.27;1.67;;;6.20;99.90;;;;;;5092173;28;20198;-51
2021/03/17 12:17:58;;;;;;;3.27;2.00;;;6.20;99.90;;;;;;5091304;28;20186;-49
2021/03/17 12:20:26;;;;;;;2.03;1.67;;;6.40;99.90;;;;;;5092447;28;20201;-50
2021/03/17 12:22:52;;;;;;;4.53;1.77;;;6.40;99.90;;;;;;5093096;28;20189;-53
2021/03/17 12:25:18;;;;;;;5.63;1.87;;;6.40;99.90;;;;;;5094479;28;20197;-48
2021/03/17 12:27:45;;;;;;;3.80;1.90;;;6.40;99.90;;;;;;5094245;28;20177;-54
2021/03/17 12:30:13;;;;;;;2.30;1.50;;;6.40;99.90;;;;;;5094890;28;20264;-56
2021/03/17 12:32:40;;;;;;;2.97;1.40;;;6.40;99.90;;;;;;5093871;28;20239;-50
2021/03/17 12:35:08;;;;;;;3.43;1.57;;;6.50;99.90;;;;;;5094632;28;20194;-59
2021/03/17 12:37:35;;;;;;;3.10;1.50;;;6.60;99.90;;;;;;5094207;28;20587;-53
2021/03/17 12:40:01;;;;;;;4.10;1.77;;;6.70;99.70;;;;;;5094726;28;20503;-53
2021/03/17 12:42:26;;;;;;;3.07;1.40;;;6.80;99.90;;;;;;5094356;28;20185;-49
2021/03/17 12:44:52;;;;;;;2.67;1.57;;;6.80;99.80;;;;;;5093736;28;20181;-48
2021/03/17 12:47:17;;;;;;;2.83;1.37;;;6.90;99.90;;;;;;5094420;28;20194;-52
2021/03/17 12:49:43;;;;;;;4.80;1.80;;;7.10;98.60;;;;;;5094344;28;20177;-49
2021/03/17 12:52:10;;;;;;;2.33;1.60;;;7.40;98.00;;;;;;5093952;28;20181;-54
2021/03/17 12:54:36;;;;;;;1.53;1.33;;;7.50;98.00;;;;;;5093958;28;20174;-49
2021/03/17 12:57:03;;;;;;;3.10;1.60;;;7.70;99.00;;;;;;5093848;28;20170;-54
2021/03/17 12:59:29;;;;;;;2.67;1.63;;;8.10;98.10;;;;;;5093415;28;20366;-49
2021/03/17 13:01:54;;;;;;;1.47;1.37;;;9.00;97.00;;;;;;5093446;28;20624;-49
2021/03/17 13:04:20;;;;;;;2.63;1.93;;;9.60;95.00;;;;;;5093006;28;20170;-53